Time;durP1;ratioP1;P1;durP2;ratioP2;P2;SDS_P1;SDS_P2;PMS_P1;PMS_P2;Temp;Humidity;BMP_temperature;BMP_pressure;BME280_temperature;BME280_humidity;BME280_pressure;Samples;Min_cycle;Max_cycle;Signal;HPM_P1;HPM_P2
2022/09/05 00:01:00;;;;;;;11.52;8.13;;;;;;;14.85;87.39;101860.50;5952624;23;20068;-87
2022/09/05 00:03:44;;;;;;;13.73;7.70;;;;;;;14.91;87.56;101876.50;5952526;24;20072;-84
2022/09/05 00:06:12;;;;;;;12.30;7.50;;;;;;;14.89;87.53;101875.78;5952432;24;20013;-87
2022/09/05 00:09:01;;;;;;;11.75;7.65;;;;;;;14.83;87.84;101877.94;5952839;24;20017;-87
2022/09/05 00:11:43;;;;;;;9.95;7.55;;;;;;;14.71;87.97;101857.94;5952815;24;20100;-87
2022/09/05 00:14:49;;;;;;;12.05;8.10;;;;;;;14.79;87.75;101871.28;5952959;24;20072;-87
2022/09/05 00:17:32;;;;;;;11.88;8.00;;;;;;;14.75;87.77;101868.06;5952798;24;20057;-85
2022/09/05 00:20:32;;;;;;;12.88;8.05;;;;;;;14.55;87.70;101838.13;5995974;23;20340;-85
2022/09/05 00:23:07;;;;;;;12.10;8.45;;;;;;;14.57;88.32;101851.03;6065494;23;20050;-87
2022/09/05 00:25:47;;;;;;;13.30;9.02;;;;;;;14.61;88.44;101868.91;6065482;23;20089;-87
2022/09/05 00:28:23;;;;;;;12.82;9.23;;;;;;;14.63;88.47;101871.41;6107885;23;20010;-86
2022/09/05 00:31:00;;;;;;;14.77;9.80;;;;;;;14.60;88.54;101866.41;6126193;23;20036;-87
2022/09/05 00:33:48;;;;;;;12.88;9.32;;;;;;;14.63;88.64;101863.59;6126190;23;20021;-87
2022/09/05 00:36:48;;;;;;;14.27;9.38;;;;;;;14.61;88.09;101868.06;6126183;23;20033;-87
2022/09/05 00:39:28;;;;;;;16.63;9.88;;;;;;;14.59;88.53;101867.34;6126342;23;20018;-87
2022/09/05 00:41:58;;;;;;;15.38;8.75;;;;;;;14.49;89.07;101864.50;6125756;23;20309;-87
2022/09/05 00:44:29;;;;;;;16.48;9.27;;;;;;;14.54;89.08;101870.22;6125971;23;20443;-87
2022/09/05 00:47:15;;;;;;;15.40;8.60;;;;;;;14.53;88.68;101870.31;6126375;23;20028;-87
2022/09/05 00:49:54;;;;;;;12.70;8.38;;;;;;;14.48;89.14;101862.81;6125799;23;20089;-86
2022/09/05 00:52:37;;;;;;;14.77;10.30;;;;;;;14.45;89.05;101857.81;6126227;23;20384;-85
2022/09/05 00:55:50;;;;;;;16.15;10.07;;;;;;;14.48;88.42;101859.41;6126008;23;20053;-87
2022/09/05 00:58:27;;;;;;;15.38;10.88;;;;;;;14.42;89.34;101862.34;6112977;23;20014;-86
2022/09/05 01:00:55;;;;;;;13.55;9.60;;;;;;;14.43;89.25;101864.84;6126008;23;20017;-86
2022/09/05 01:03:46;;;;;;;18.65;9.18;;;;;;;14.42;88.95;101860.56;6126165;23;20312;-86
2022/09/05 01:06:46;;;;;;;15.13;10.48;;;;;;;14.36;89.35;101860.97;6125973;23;20029;-87
2022/09/05 01:09:29;;;;;;;14.57;10.15;;;;;;;14.03;89.13;101810.16;6125624;23;20006;-86
2022/09/05 01:12:13;;;;;;;20.52;10.85;;;;;;;14.27;89.76;101857.19;6125845;23;20005;-86
2022/09/05 01:14:45;;;;;;;14.45;10.25;;;;;;;14.28;89.68;101863.22;6125775;23;20002;-85
2022/09/05 01:17:31;;;;;;;17.45;10.70;;;;;;;14.23;89.39;101852.25;6125768;23;20009;-86
2022/09/05 01:20:26;;;;;;;14.88;10.32;;;;;;;14.04;89.71;101831.75;6125787;23;20073;-87
2022/09/05 01:23:25;;;;;;;15.95;9.85;;;;;;;14.18;89.71;101857.75;6125649;23;20009;-88
2022/09/05 01:26:17;;;;;;;14.75;10.05;;;;;;;14.13;90.19;101862.38;6125744;23;20037;-85
2022/09/05 01:29:00;;;;;;;14.35;10.68;;;;;;;14.11;90.16;101859.03;5979908;24;20023;-85
2022/09/05 01:31:49;;;;;;;16.13;11.02;;;;;;;14.10;89.87;101857.38;5979486;24;20048;-86
2022/09/05 01:34:32;;;;;;;16.88;12.18;;;;;;;14.03;90.17;101856.06;5980008;24;20013;-84
2022/09/05 01:37:17;;;;;;;21.83;12.68;;;;;;;14.06;89.88;101856.75;5979319;24;20346;-86
2022/09/05 01:39:49;;;;;;;17.60;13.13;;;;;;;14.05;89.96;101856.81;5980082;24;20020;-86
2022/09/05 01:42:49;;;;;;;18.25;12.75;;;;;;;14.06;89.65;101856.75;5980190;24;20010;-86
2022/09/05 01:45:25;;;;;;;18.15;12.98;;;;;;;13.84;90.26;101825.19;5979972;24;20019;-85
2022/09/05 01:48:29;;;;;;;21.63;14.25;;;;;;;14.00;90.06;101853.66;5979859;24;20027;-85
2022/09/05 01:51:33;;;;;;;18.30;14.07;;;;;;;13.91;90.44;101844.69;5923980;24;20009;-85
2022/09/05 01:54:29;;;;;;;20.42;15.15;;;;;;;13.85;90.64;101845.03;5925336;24;20503;-86
2022/09/05 01:57:19;;;;;;;19.80;14.70;;;;;;;13.90;90.39;101861.19;5926285;24;20027;-82
2022/09/05 01:59:55;;;;;;;21.52;15.20;;;;;;;13.85;90.87;101855.41;5926448;24;20009;-85
2022/09/05 02:02:29;;;;;;;20.35;14.52;;;;;;;13.84;90.84;101850.31;5926350;24;20145;-85
2022/09/05 02:05:12;;;;;;;21.73;15.15;;;;;;;13.86;90.63;101854.50;5949176;23;20337;-86
2022/09/05 02:07:49;;;;;;;20.67;15.30;;;;;;;13.82;90.81;101860.81;6066796;23;20500;-85
2022/09/05 02:10:52;;;;;;;20.88;14.90;;;;;;;13.81;90.75;101856.53;6067052;23;20013;-85
2022/09/05 02:13:39;;;;;;;23.65;16.27;;;;;;;13.76;91.08;101848.19;6066824;23;20094;-85
2022/09/05 02:16:12;;;;;;;25.48;16.60;;;;;;;13.69;90.92;101836.53;6066762;23;20385;-88
2022/09/05 02:18:51;;;;;;;26.63;16.67;;;;;;;13.76;91.28;101851.66;6066474;23;20014;-86
2022/09/05 02:21:37;;;;;;;22.02;16.08;;;;;;;13.77;90.95;101850.72;6066509;23;20007;-87
2022/09/05 02:24:27;;;;;;;21.40;16.58;;;;;;;13.75;91.02;101854.31;6066650;23;20460;-87
2022/09/05 02:27:10;;;;;;;25.42;16.90;;;;;;;13.62;91.04;101841.22;6070943;23;20337;-86
2022/09/05 02:29:48;;;;;;;21.90;16.70;;;;;;;13.65;90.96;101851.44;6127506;23;20006;-86
2022/09/05 02:32:34;;;;;;;24.80;18.50;;;;;;;13.69;91.39;101859.88;6127414;23;20010;-87
2022/09/05 02:35:14;;;;;;;27.17;18.65;;;;;;;13.66;91.43;101863.47;6127022;23;20010;-83
2022/09/05 02:37:42;;;;;;;27.40;18.92;;;;;;;13.63;91.55;101861.06;6126599;23;20021;-86
2022/09/05 02:40:21;;;;;;;23.42;18.13;;;;;;;13.62;91.80;101872.38;6127357;23;20085;-85
2022/09/05 02:43:08;;;;;;;26.00;17.70;;;;;;;13.62;91.33;101869.78;6127156;23;20488;-84
2022/09/05 02:45:43;;;;;;;25.02;18.98;;;;;;;13.33;91.63;101837.75;6126976;23;20016;-86
2022/09/05 02:48:39;;;;;;;23.52;18.90;;;;;;;13.54;91.68;101869.41;6127069;23;20017;-87
2022/09/05 02:51:09;;;;;;;28.58;21.20;;;;;;;13.54;91.84;101858.19;6100874;23;20458;-86
2022/09/05 02:53:39;;;;;;;28.75;21.15;;;;;;;13.42;91.65;101847.59;6126858;23;20033;-85
2022/09/05 02:56:04;;;;;;;28.55;21.92;;;;;;;13.48;91.74;101865.41;6127055;23;20041;-85
2022/09/05 02:58:43;;;;;;;31.15;22.23;;;;;;;13.46;91.97;101864.66;6126886;23;20002;-83
2022/09/05 03:01:18;;;;;;;26.85;21.15;;;;;;;13.43;91.93;101867.44;6127050;23;20048;-81
2022/09/05 03:04:01;;;;;;;29.15;21.58;;;;;;;13.27;92.21;101852.84;6101186;23;20005;-86
2022/09/05 03:06:35;;;;;;;29.17;21.70;;;;;;;13.34;92.31;101867.13;6126767;23;20013;-86
2022/09/05 03:09:35;;;;;;;30.25;21.63;;;;;;;13.34;92.09;101867.97;6126818;23;20383;-83
2022/09/05 03:12:09;;;;;;;31.05;21.95;;;;;;;13.29;92.45;101870.00;6126682;23;20016;-85
2022/09/05 03:15:16;;;;;;;28.73;21.70;;;;;;;13.18;92.18;101849.84;6126893;23;20017;-85
2022/09/05 03:18:00;;;;;;;29.23;22.98;;;;;;;13.25;92.28;101863.31;6126767;23;20065;-85
2022/09/05 03:20:28;;;;;;;31.30;22.13;;;;;;;13.18;92.63;101860.22;6126408;23;20424;-83
2022/09/05 03:23:27;;;;;;;41.70;23.48;;;;;;;13.10;92.48;101838.22;6126187;23;20002;-86
2022/09/05 03:26:01;;;;;;;34.53;23.83;;;;;;;13.16;93.04;101864.63;6126465;23;20491;-84
2022/09/05 03:29:05;;;;;;;33.08;23.52;;;;;;;13.16;92.91;101867.22;6126548;23;20010;-85
2022/09/05 03:31:55;;;;;;;38.80;25.38;;;;;;;13.15;92.98;101867.31;6126592;23;20490;-87
2022/09/05 03:35:03;;;;;;;33.15;24.27;;;;;;;13.11;93.15;101871.84;6126854;23;20006;-84
2022/09/05 03:37:34;;;;;;;33.90;25.25;;;;;;;13.07;93.35;101869.50;5980320;24;20031;-87
2022/09/05 03:40:15;;;;;;;33.45;25.48;;;;;;;12.79;92.97;101823.59;5980796;24;20342;-86
2022/09/05 03:42:59;;;;;;;35.35;25.58;;;;;;;13.07;93.05;101874.69;5980604;24;20019;-86
2022/09/05 03:45:41;;;;;;;34.80;25.50;;;;;;;13.04;93.52;101867.09;5980897;24;20016;-87
2022/09/05 03:48:25;;;;;;;33.95;25.85;;;;;;;13.04;93.37;101860.16;5980835;24;20008;-86
2022/09/05 03:50:58;;;;;;;36.13;26.45;;;;;;;13.02;94.09;101862.00;5980686;24;20095;-80
2022/09/05 03:53:46;;;;;;;35.08;25.85;;;;;;;13.03;93.53;101861.06;5980422;24;20130;-78
2022/09/05 03:56:37;;;;;;;34.70;26.57;;;;;;;13.00;93.37;101860.44;5980608;24;20477;-85
2022/09/05 03:59:10;;;;;;;38.35;27.27;;;;;;;12.84;93.58;101843.13;5925065;24;20017;-87
2022/09/05 04:01:55;;;;;;;36.20;27.13;;;;;;;12.93;93.77;101870.28;5925242;24;20038;-86
2022/09/05 04:04:41;;;;;;;34.92;26.27;;;;;;;12.82;93.90;101860.53;5925277;24;20009;-82
2022/09/05 04:07:15;;;;;;;34.20;26.95;;;;;;;12.86;94.33;101872.38;5924936;24;20088;-86
2022/09/05 04:09:47;;;;;;;37.50;26.88;;;;;;;12.88;94.13;101869.69;5924786;24;20038;-81
2022/09/05 04:12:27;;;;;;;41.03;29.75;;;;;;;12.75;94.77;101841.06;5925179;24;20017;-86
2022/09/05 04:15:02;;;;;;;41.35;28.88;;;;;;;12.84;95.10;101866.47;6019237;23;20330;-83
2022/09/05 04:17:27;;;;;;;41.30;29.23;;;;;;;12.88;95.32;101867.09;6065263;23;20428;-87
2022/09/05 04:20:10;;;;;;;43.17;29.50;;;;;;;12.91;95.34;101872.16;6065742;23;20007;-84
2022/09/05 04:23:04;;;;;;;38.75;28.48;;;;;;;12.61;94.53;101831.47;6065301;23;20015;-85
2022/09/05 04:25:47;;;;;;;39.85;29.88;;;;;;;12.83;95.16;101863.97;5980335;24;20430;-87
2022/09/05 04:28:42;;;;;;;42.78;29.30;;;;;;;12.84;94.83;101879.41;5980545;24;20094;-86
2022/09/05 04:31:20;;;;;;;41.83;30.38;;;;;;;12.56;95.31;101835.22;5924863;24;20009;-87
2022/09/05 04:33:51;;;;;;;41.47;30.75;;;;;;;12.80;96.33;101880.53;5925412;24;20066;-83
2022/09/05 04:36:28;;;;;;;40.92;29.15;;;;;;;12.78;95.96;101864.22;5924963;24;20016;-87
2022/09/05 04:39:18;;;;;;;39.20;29.38;;;;;;;12.81;95.40;101873.59;5924391;24;20025;-86
2022/09/05 04:41:50;;;;;;;41.67;30.10;;;;;;;12.78;95.36;101877.19;5924637;24;20123;-85
2022/09/05 04:44:20;;;;;;;41.05;28.67;;;;;;;12.54;95.28;101848.25;5924737;24;20108;-85
2022/09/05 04:46:59;;;;;;;45.60;30.25;;;;;;;12.70;95.43;101874.19;5925000;24;20458;-81
2022/09/05 04:49:32;;;;;;;42.45;30.27;;;;;;;12.70;95.40;101878.53;5924510;24;20037;-86
2022/09/05 04:52:23;;;;;;;41.47;28.77;;;;;;;12.68;95.26;101885.53;5924544;24;20363;-83
2022/09/05 04:54:54;;;;;;;39.88;28.80;;;;;;;12.64;95.60;101880.53;5924795;24;20014;-83
2022/09/05 04:57:33;;;;;;;38.88;29.80;;;;;;;12.38;95.80;101836.22;5924757;24;20021;-85
2022/09/05 05:00:11;;;;;;;40.00;29.58;;;;;;;12.57;95.72;101858.44;5925037;24;20013;-85
2022/09/05 05:02:42;;;;;;;40.20;29.80;;;;;;;12.46;95.58;101844.41;5990497;23;20465;-78
2022/09/05 05:05:26;;;;;;;43.00;30.17;;;;;;;12.58;95.40;101861.88;6036738;23;20078;-85
2022/09/05 05:08:11;;;;;;;45.03;30.48;;;;;;;12.69;95.21;101867.31;6081060;23;20324;-87
2022/09/05 05:10:41;;;;;;;41.72;29.55;;;;;;;12.72;95.31;101872.34;6125523;23;20021;-87
2022/09/05 05:13:30;;;;;;;39.00;28.83;;;;;;;12.67;95.29;101863.13;6126171;23;20006;-86
2022/09/05 05:16:04;;;;;;;41.75;29.75;;;;;;;12.89;94.86;101890.38;6125049;23;20420;-84
2022/09/05 05:18:35;;;;;;;40.90;29.48;;;;;;;12.93;94.81;101886.69;6126394;23;20357;-85
2022/09/05 05:21:15;;;;;;;41.35;29.02;;;;;;;12.88;94.84;101872.28;6128127;23;20014;-88
2022/09/05 05:24:09;;;;;;;43.92;30.88;;;;;;;13.08;95.26;101902.31;6130765;23;20419;-85
2022/09/05 05:27:01;;;;;;;41.83;29.27;;;;;;;13.14;95.77;101897.59;6119054;23;20020;-83
2022/09/05 05:29:56;;;;;;;42.55;26.52;;;;;;;13.29;95.89;101900.28;6127530;23;20006;-86
2022/09/05 05:32:26;;;;;;;38.33;26.50;;;;;;;13.47;96.84;101892.28;5981982;24;20012;-85
2022/09/05 05:34:56;;;;;;;40.92;26.20;;;;;;;13.72;95.49;101893.44;5982304;24;20042;-81
2022/09/05 05:37:28;;;;;;;35.60;25.60;;;;;;;13.82;94.60;101896.31;5981977;24;20024;-80
2022/09/05 05:40:09;;;;;;;39.25;27.02;;;;;;;13.93;93.62;101893.91;5982682;24;20018;-85
2022/09/05 05:42:38;;;;;;;44.20;27.55;;;;;;;13.85;92.42;101860.63;5982001;24;20427;-85
2022/09/05 05:45:15;;;;;;;45.92;26.58;;;;;;;14.21;92.85;101895.69;5958468;24;20023;-87
2022/09/05 05:47:43;;;;;;;38.17;25.60;;;;;;;14.22;91.75;101895.59;5981841;24;20019;-81
2022/09/05 05:50:28;;;;;;;44.25;27.05;;;;;;;14.13;91.51;101872.75;5981824;24;20049;-85
2022/09/05 05:53:19;;;;;;;46.20;27.52;;;;;;;14.42;92.08;101893.53;5982413;24;20012;-88
2022/09/05 05:55:56;;;;;;;39.30;26.25;;;;;;;14.64;91.28;101904.28;5982172;24;20048;-81
2022/09/05 05:58:48;;;;;;;37.45;25.48;;;;;;;14.74;90.48;101905.34;5981510;24;20099;-83
2022/09/05 06:01:40;;;;;;;40.70;26.38;;;;;;;14.89;89.71;101904.41;5981696;24;20008;-79
2022/09/05 06:04:38;;;;;;;45.88;26.63;;;;;;;15.19;88.94;101909.38;5982056;24;20016;-81
2022/09/05 06:07:28;;;;;;;34.80;24.58;;;;;;;15.64;87.01;101906.50;5958746;24;20091;-82
2022/09/05 06:10:23;;;;;;;35.67;24.33;;;;;;;15.74;86.35;101910.97;6102194;23;20347;-81
2022/09/05 06:13:11;;;;;;;43.78;25.45;;;;;;;16.15;86.13;101896.88;6127314;23;20002;-83
2022/09/05 06:15:51;;;;;;;28.38;20.30;;;;;;;17.58;81.08;101910.91;6127169;23;20147;-82
2022/09/05 06:18:35;;;;;;;34.97;23.23;;;;;;;18.61;78.06;101915.13;6127746;23;20081;-78
2022/09/05 06:21:23;;;;;;;33.17;22.95;;;;;;;19.59;74.24;101884.41;6127742;23;20037;-80
2022/09/05 06:23:51;;;;;;;31.13;19.02;;;;;;;20.52;67.29;101920.13;6126725;23;20053;-78
2022/09/05 06:26:41;;;;;;;33.67;21.67;;;;;;;21.53;68.82;101896.09;6128056;23;20092;-91
2022/09/05 06:29:25;;;;;;;29.42;17.73;;;;;;;22.96;58.71;101913.16;6128359;23;20081;-85
2022/09/05 06:32:04;;;;;;;33.05;20.40;;;;;;;24.05;55.38;101916.22;6126819;23;20014;-80
2022/09/05 06:34:42;;;;;;;26.98;17.85;;;;;;;24.94;55.78;101920.09;6100592;23;20121;-86
2022/09/05 06:37:37;;;;;;;28.77;18.70;;;;;;;25.75;53.12;101898.91;6126889;23;20013;-89
2022/09/05 06:40:11;;;;;;;24.80;17.23;;;;;;;26.63;46.43;101913.75;6126871;23;20002;-81
2022/09/05 06:42:46;;;;;;;20.63;14.63;;;;;;;27.07;47.21;101914.78;6127299;23;20001;-83
2022/09/05 06:45:24;;;;;;;27.40;16.50;;;;;;;27.20;46.68;101889.47;6126998;23;20005;-90
2022/09/05 06:47:56;;;;;;;21.90;15.65;;;;;;;27.77;44.18;101915.47;6128248;23;20379;-85
2022/09/05 06:50:31;;;;;;;22.80;15.32;;;;;;;27.89;43.27;101868.84;6128138;23;20084;-86
2022/09/05 06:53:17;;;;;;;28.92;17.23;;;;;;;28.33;42.12;101910.47;6128360;23;20009;-84
2022/09/05 06:55:58;;;;;;;24.13;14.88;;;;;;;28.78;42.80;101898.66;6129096;23;20006;-83
2022/09/05 06:58:54;;;;;;;23.48;13.35;;;;;;;29.04;42.61;101914.88;6129589;23;20013;-82
2022/09/05 07:01:26;;;;;;;25.65;15.23;;;;;;;28.83;39.57;101910.38;6130089;23;20444;-92
2022/09/05 07:04:11;;;;;;;20.38;13.10;;;;;;;27.91;40.50;101909.31;6127831;23;20005;-87
2022/09/05 07:06:56;;;;;;;23.27;14.00;;;;;;;26.03;45.46;101846.38;6128483;23;20010;-86
2022/09/05 07:10:03;;;;;;;26.60;15.05;;;;;;;24.91;47.70;101878.16;6126902;23;20006;-88
2022/09/05 07:12:47;;;;;;;25.52;15.07;;;;;;;24.09;49.57;101914.06;6126677;23;20009;-80
2022/09/05 07:15:32;;;;;;;23.40;14.45;;;;;;;23.45;50.79;101913.53;6127083;23;20009;-84
2022/09/05 07:18:10;;;;;;;25.45;15.23;;;;;;;22.98;52.11;101918.28;6100044;23;20506;-86
2022/09/05 07:20:45;;;;;;;26.73;15.90;;;;;;;22.57;52.85;101920.47;6126582;23;20009;-85
2022/09/05 07:23:17;;;;;;;32.95;18.05;;;;;;;22.23;54.48;101922.91;6126487;23;20396;-79
2022/09/05 07:25:48;;;;;;;25.67;16.50;;;;;;;21.82;55.38;101892.56;6126707;23;20009;-80
2022/09/05 07:28:18;;;;;;;27.42;18.13;;;;;;;21.85;55.32;101919.41;6125552;23;20016;-78
2022/09/05 07:30:54;;;;;;;28.08;14.95;;;;;;;21.80;56.23;101921.63;6127102;23;20010;-79
2022/09/05 07:33:26;;;;;;;27.95;19.20;;;;;;;21.45;56.20;101891.56;6126556;23;20002;-82
2022/09/05 07:35:56;;;;;;;27.83;15.48;;;;;;;21.59;57.01;101921.81;6126892;23;20006;-89
2022/09/05 07:38:27;;;;;;;32.90;21.58;;;;;;;21.50;57.53;101927.09;6126331;23;20052;-81
2022/09/05 07:40:56;;;;;;;;;;;;;;;21.51;57.49;101929.59;6126736;23;20002;-77
2022/09/05 07:43:38;;;;;;;32.15;21.42;;;;;;;21.43;57.90;101938.19;6127026;23;19956;-79
2022/09/05 07:46:16;;;;;;;29.92;18.70;;;;;;;21.41;57.97;101939.28;6126402;23;20052;-79
2022/09/05 07:48:56;;;;;;;30.10;23.42;;;;;;;21.34;58.03;101940.84;6126360;23;20104;-84
2022/09/05 07:51:29;;;;;;;30.77;22.35;;;;;;;21.16;58.73;101914.41;6126088;23;20033;-77
2022/09/05 07:54:01;;;;;;;26.65;19.13;;;;;;;21.11;58.68;101911.34;6126505;23;20030;-78
2022/09/05 07:56:44;;;;;;;26.20;19.98;;;;;;;21.19;58.87;101919.34;6126263;23;20336;-75
2022/09/05 07:59:12;;;;;;;25.42;17.88;;;;;;;21.41;59.08;101945.38;6126519;23;20010;-81
2022/09/05 08:01:44;;;;;;;25.90;17.23;;;;;;;21.28;58.85;101899.34;6126132;23;20009;-84
2022/09/05 08:04:22;;;;;;;25.23;17.30;;;;;;;21.61;58.73;101940.91;6126452;23;20328;-83
2022/09/05 08:06:51;;;;;;;26.95;17.23;;;;;;;21.57;58.58;101929.03;6126493;23;20006;-90
2022/09/05 08:09:26;;;;;;;22.73;16.05;;;;;;;21.74;59.17;101944.06;6125741;23;20057;-87
2022/09/05 08:11:56;;;;;;;26.98;16.70;;;;;;;21.83;58.92;101947.66;6126044;23;20006;-78
2022/09/05 08:14:53;;;;;;;29.83;16.80;;;;;;;21.94;58.50;101949.28;6126014;23;20424;-84
2022/09/05 08:17:24;;;;;;;22.73;14.40;;;;;;;22.07;58.09;101941.91;6099543;23;20336;-74
2022/09/05 08:20:23;;;;;;;21.02;14.98;;;;;;;22.16;56.56;101930.53;6126546;23;20025;-80
2022/09/05 08:23:08;;;;;;;20.58;13.48;;;;;;;22.28;56.14;101932.00;6125836;23;20397;-74
2022/09/05 08:25:39;;;;;;;20.13;11.40;;;;;;;22.45;55.08;101929.56;6125947;23;20006;-81
2022/09/05 08:28:25;;;;;;;17.60;11.13;;;;;;;22.49;54.74;101933.53;6125613;23;20085;-76
2022/09/05 08:31:18;;;;;;;19.63;11.40;;;;;;;22.47;54.00;101920.53;6126428;23;20017;-81
2022/09/05 08:33:46;;;;;;;21.77;9.70;;;;;;;22.82;53.57;101938.19;6125800;23;20006;-78
2022/09/05 08:36:23;;;;;;;17.20;9.77;;;;;;;23.02;51.48;101943.34;6126009;23;20427;-77
2022/09/05 08:38:49;;;;;;;14.00;8.43;;;;;;;23.14;51.02;101947.41;6125830;23;20037;-80
2022/09/05 08:41:29;;;;;;;14.15;8.02;;;;;;;23.24;51.59;101936.78;6126077;23;20328;-77
2022/09/05 08:44:07;;;;;;;14.27;7.60;;;;;;;23.32;49.88;101950.03;6125784;23;20002;-80
2022/09/05 08:46:46;;;;;;;12.55;7.38;;;;;;;23.35;50.78;101945.28;6126244;23;20006;-81
2022/09/05 08:49:39;;;;;;;14.95;6.80;;;;;;;23.46;51.28;101941.56;6125775;23;20451;-79
2022/09/05 08:52:25;;;;;;;12.18;7.30;;;;;;;23.55;50.40;101939.81;6125923;23;20055;-74
2022/09/05 08:55:06;;;;;;;17.05;7.00;;;;;;;23.63;50.11;101932.81;6126023;23;20010;-78
2022/09/05 08:57:38;;;;;;;16.85;9.35;;;;;;;23.74;49.24;101927.28;6125718;23;20021;-74
2022/09/05 09:00:07;;;;;;;16.58;7.55;;;;;;;23.83;50.02;101929.97;6125825;23;20006;-76
2022/09/05 09:02:44;;;;;;;13.10;6.53;;;;;;;23.94;49.75;101919.97;6126043;23;20005;-76
2022/09/05 09:05:35;;;;;;;16.80;8.88;;;;;;;24.04;49.19;101925.13;6125721;23;20002;-78
2022/09/05 09:08:19;;;;;;;16.27;7.65;;;;;;;24.12;50.29;101911.97;6125769;23;20056;-81
2022/09/05 09:10:59;;;;;;;17.98;7.90;;;;;;;24.27;49.27;101913.00;6125679;23;20057;-79
2022/09/05 09:13:51;;;;;;;14.38;7.97;;;;;;;24.44;48.31;101919.19;6125735;23;20002;-74
2022/09/05 09:16:25;;;;;;;15.50;7.38;;;;;;;24.51;48.46;101914.94;6125604;23;20002;-76
2022/09/05 09:18:50;;;;;;;12.73;5.97;;;;;;;24.70;47.35;101913.00;6125617;23;20009;-75
2022/09/05 09:21:46;;;;;;;10.05;6.25;;;;;;;24.79;47.78;101915.47;6125850;23;20009;-80
2022/09/05 09:24:38;;;;;;;12.90;5.88;;;;;;;24.81;47.84;101915.31;6126077;23;20080;-79
2022/09/05 09:27:10;;;;;;;13.77;5.32;;;;;;;24.73;45.66;101902.91;6125687;23;20069;-80
2022/09/05 09:29:38;;;;;;;9.25;4.72;;;;;;;24.75;44.54;101886.91;6125921;23;20002;-79
2022/09/05 09:32:13;;;;;;;9.77;4.25;;;;;;;24.91;44.90;101905.41;6125745;23;20002;-80
2022/09/05 09:34:52;;;;;;;9.07;3.78;;;;;;;25.00;44.67;101899.16;6125900;23;20013;-79
2022/09/05 09:37:53;;;;;;;11.98;4.20;;;;;;;25.11;44.74;101903.31;6125400;23;20431;-77
2022/09/05 09:40:37;;;;;;;7.05;3.13;;;;;;;25.19;43.30;101903.31;6124670;23;20018;-77
2022/09/05 09:43:02;;;;;;;9.18;3.92;;;;;;;25.32;42.11;101895.69;6125807;23;20014;-76
2022/09/05 09:45:58;;;;;;;9.32;4.10;;;;;;;25.38;43.31;101897.66;6125065;23;20008;-73
2022/09/05 09:48:46;;;;;;;6.32;3.60;;;;;;;25.43;41.92;101892.69;6100448;23;20010;-74
2022/09/05 09:51:36;;;;;;;6.38;2.75;;;;;;;25.52;42.73;101896.13;6125648;23;20437;-81
2022/09/05 09:54:11;;;;;;;9.57;3.20;;;;;;;25.52;41.12;101896.13;6125276;23;20005;-74
2022/09/05 09:57:22;;;;;;;6.22;3.17;;;;;;;25.55;40.40;101873.81;6125416;23;20073;-74
2022/09/05 10:00:13;;;;;;;8.73;2.67;;;;;;;25.83;40.86;101892.78;6099990;23;20062;-77
2022/09/05 10:02:44;;;;;;;7.20;3.20;;;;;;;26.00;40.31;101891.72;6125107;23;20479;-75
2022/09/05 10:05:34;;;;;;;6.05;2.72;;;;;;;26.07;39.90;101891.88;6099668;23;20013;-75
2022/09/05 10:08:17;;;;;;;5.30;2.70;;;;;;;26.10;39.85;101889.69;6125401;23;20002;-76
2022/09/05 10:10:57;;;;;;;8.73;2.72;;;;;;;26.12;38.31;101882.41;6125723;23;20074;-74
2022/09/05 10:13:29;;;;;;;6.30;2.50;;;;;;;25.96;37.71;101862.13;6125366;23;20006;-74
2022/09/05 10:16:25;;;;;;;3.88;2.22;;;;;;;26.20;38.56;101878.88;6127270;23;20409;-77
2022/09/05 10:19:09;;;;;;;5.72;2.47;;;;;;;26.22;37.35;101875.06;6127318;23;20395;-76
2022/09/05 10:21:46;;;;;;;7.43;3.17;;;;;;;26.27;36.39;101863.97;6127107;23;20005;-74
2022/09/05 10:24:36;;;;;;;5.47;2.53;;;;;;;26.30;36.75;101869.72;6127210;23;20045;-76
2022/09/05 10:27:20;;;;;;;7.25;2.70;;;;;;;26.38;36.53;101871.53;6127282;23;20038;-75
2022/09/05 10:29:53;;;;;;;8.00;2.40;;;;;;;26.53;35.62;101874.25;6126612;23;20073;-75
2022/09/05 10:32:56;;;;;;;4.80;2.58;;;;;;;26.62;36.62;101861.75;6127535;23;20010;-76
2022/09/05 10:35:40;;;;;;;7.03;2.25;;;;;;;26.70;35.65;101857.22;6127169;23;20094;-75
2022/09/05 10:38:05;;;;;;;3.95;2.30;;;;;;;26.71;35.44;101855.41;6126744;23;20470;-77
2022/09/05 10:40:33;;;;;;;8.10;3.05;;;;;;;26.65;36.30;101856.13;6127138;23;20088;-79
2022/09/05 10:43:25;;;;;;;4.78;2.70;;;;;;;26.68;36.62;101842.53;6126695;23;20006;-75
2022/09/05 10:45:56;;;;;;;8.52;2.90;;;;;;;26.84;35.47;101852.97;6126970;23;20097;-74
2022/09/05 10:48:33;;;;;;;6.80;2.60;;;;;;;26.95;34.92;101852.56;6127174;23;20072;-74
2022/09/05 10:51:05;;;;;;;7.10;2.45;;;;;;;26.93;35.91;101843.94;6126785;23;20006;-73
2022/09/05 10:53:43;;;;;;;7.22;2.72;;;;;;;27.07;35.72;101847.69;6126881;23;20012;-75
2022/09/05 10:56:18;;;;;;;8.77;2.42;;;;;;;27.14;35.50;101851.25;6127035;23;20061;-76
2022/09/05 10:58:44;;;;;;;8.18;2.35;;;;;;;27.22;34.99;101843.19;6126417;23;20006;-75
2022/09/05 11:01:21;;;;;;;8.45;2.65;;;;;;;27.16;35.51;101838.66;6127022;23;20032;-79
2022/09/05 11:03:53;;;;;;;5.82;2.30;;;;;;;27.17;35.50;101839.47;6127162;23;20101;-77
2022/09/05 11:06:28;;;;;;;8.60;2.60;;;;;;;27.06;35.09;101817.69;6126935;23;20053;-74
2022/09/05 11:09:04;;;;;;;5.47;2.17;;;;;;;27.18;34.94;101839.28;6127163;23;20006;-76
2022/09/05 11:11:44;;;;;;;7.47;2.55;;;;;;;27.36;34.86;101838.94;6126515;23;20010;-71
2022/09/05 11:14:52;;;;;;;4.77;2.60;;;;;;;27.27;35.57;101810.84;6126729;23;20010;-71
2022/09/05 11:17:38;;;;;;;4.72;2.08;;;;;;;27.41;35.27;101826.75;5980760;24;20265;-75
2022/09/05 11:20:22;;;;;;;5.72;2.40;;;;;;;27.47;34.63;101819.91;5980984;24;20075;-76
2022/09/05 11:22:49;;;;;;;5.28;2.33;;;;;;;27.41;34.54;101796.75;5981024;24;20009;-74
2022/09/05 11:25:22;;;;;;;12.85;2.58;;;;;;;27.54;34.98;101814.69;5980677;24;20436;-77
2022/09/05 11:27:53;;;;;;;8.48;2.65;;;;;;;27.56;33.62;101825.94;5980804;24;20008;-78
2022/09/05 11:30:21;;;;;;;6.28;2.55;;;;;;;27.39;34.16;101806.72;5980635;24;20012;-79
2022/09/05 11:33:41;;;;;;;5.00;2.38;;;;;;;27.44;34.70;101807.00;5980959;24;20035;-79
2022/09/05 11:36:11;;;;;;;4.05;2.35;;;;;;;27.59;35.15;101813.13;5953018;24;20036;-80
2022/09/05 11:38:48;;;;;;;4.85;2.15;;;;;;;27.67;34.49;101818.34;5951502;24;20065;-75
2022/09/05 11:41:14;;;;;;;5.43;2.22;;;;;;;27.67;34.50;101812.22;5953280;24;20463;-74
2022/09/05 11:43:54;;;;;;;4.80;2.03;;;;;;;27.68;35.14;101817.34;5952866;23;20076;-74
2022/09/05 11:46:27;;;;;;;3.20;1.98;;;;;;;27.77;33.39;101819.91;5952852;24;20249;-80
2022/09/05 11:49:01;;;;;;;4.93;2.33;;;;;;;27.82;33.21;101817.50;5952849;24;20042;-74
2022/09/05 11:52:09;;;;;;;7.40;2.70;;;;;;;27.64;33.73;101786.03;5952700;24;20016;-77
2022/09/05 11:55:07;;;;;;;4.25;2.25;;;;;;;27.95;33.71;101822.97;5932004;24;20009;-78
2022/09/05 11:58:07;;;;;;;5.38;2.33;;;;;;;27.87;34.12;101809.81;5924999;24;20093;-79
2022/09/05 12:01:11;;;;;;;7.13;2.20;;;;;;;27.85;34.34;101823.28;5925099;24;20361;-78
2022/09/05 12:03:56;;;;;;;3.50;2.05;;;;;;;27.84;33.02;101815.50;5844133;24;20438;-78
2022/09/05 12:06:49;;;;;;;5.22;2.20;;;;;;;27.71;32.89;101810.84;5844024;24;20014;-77
2022/09/05 12:09:45;;;;;;;3.78;2.03;;;;;;;27.79;34.62;101810.75;5851278;24;20010;-78
2022/09/05 12:12:25;;;;;;;6.95;2.30;;;;;;;27.81;33.33;101810.56;5870690;24;20014;-75
2022/09/05 12:15:02;;;;;;;6.65;2.38;;;;;;;27.83;32.98;101798.75;5870454;24;20010;-76
2022/09/05 12:17:51;;;;;;;6.30;2.13;;;;;;;27.90;34.09;101807.59;5870715;24;20018;-76
2022/09/05 12:20:37;;;;;;;5.95;2.42;;;;;;;27.87;33.07;101794.72;5870550;24;20517;-77